sensor_id;sensor_type;location;lat;lon;timestamp;temperature;humidity
67586;SHT31;55785;47.946;20.540;2023-08-08T06:40:50;17.49;71.67
67586;SHT31;55785;47.946;20.540;2023-08-08T07:48:37;19.19;66.07
67586;SHT31;55785;47.946;20.540;2023-08-08T07:58:18;18.96;66.47
67586;SHT31;55785;47.946;20.540;2023-08-08T08:29:47;19.43;66.19
67586;SHT31;55785;47.946;20.540;2023-08-08T08:32:13;19.46;64.07
67586;SHT31;55785;47.946;20.540;2023-08-08T08:34:38;19.45;65.44
67586;SHT31;55785;47.946;20.540;2023-08-08T08:37:03;19.32;64.58
67586;SHT31;55785;47.946;20.540;2023-08-08T08:39:29;19.37;65.10
67586;SHT31;55785;47.946;20.540;2023-08-08T08:41:58;19.50;64.71
67586;SHT31;55785;47.946;20.540;2023-08-08T08:44:25;19.75;63.27
67586;SHT31;55785;47.946;20.540;2023-08-08T08:46:52;19.95;62.22
67586;SHT31;55785;47.946;20.540;2023-08-08T08:49:18;19.95;65.75
67586;SHT31;55785;47.946;20.540;2023-08-08T08:51:45;20.17;65.05
67586;SHT31;55785;47.946;20.540;2023-08-08T08:54:12;20.18;61.41
67586;SHT31;55785;47.946;20.540;2023-08-08T08:56:38;20.33;63.84
67586;SHT31;55785;47.946;20.540;2023-08-08T08:59:04;20.26;59.50
67586;SHT31;55785;47.946;20.540;2023-08-08T09:01:29;20.24;59.70
67586;SHT31;55785;47.946;20.540;2023-08-08T09:03:55;20.22;61.34
67586;SHT31;55785;47.946;20.540;2023-08-08T09:06:23;20.24;62.15
67586;SHT31;55785;47.946;20.540;2023-08-08T09:08:48;20.32;61.62
67586;SHT31;55785;47.946;20.540;2023-08-08T09:11:14;20.22;58.84
67586;SHT31;55785;47.946;20.540;2023-08-08T09:13:39;20.26;63.93
67586;SHT31;55785;47.946;20.540;2023-08-08T09:16:06;20.18;62.58
67586;SHT31;55785;47.946;20.540;2023-08-08T09:18:32;20.14;61.42
67586;SHT31;55785;47.946;20.540;2023-08-08T09:20:58;20.02;59.25
67586;SHT31;55785;47.946;20.540;2023-08-08T09:23:23;19.92;57.02
67586;SHT31;55785;47.946;20.540;2023-08-08T09:25:49;19.91;55.86
67586;SHT31;55785;47.946;20.540;2023-08-08T09:28:15;19.94;55.60
67586;SHT31;55785;47.946;20.540;2023-08-08T09:30:41;20.02;54.02
67586;SHT31;55785;47.946;20.540;2023-08-08T09:33:07;20.12;53.71
67586;SHT31;55785;47.946;20.540;2023-08-08T09:35:32;20.17;52.65
67586;SHT31;55785;47.946;20.540;2023-08-08T09:37:58;20.30;52.90
67586;SHT31;55785;47.946;20.540;2023-08-08T09:40:23;20.45;53.45
67586;SHT31;55785;47.946;20.540;2023-08-08T09:42:51;20.50;52.52
67586;SHT31;55785;47.946;20.540;2023-08-08T09:45:17;20.67;52.37
67586;SHT31;55785;47.946;20.540;2023-08-08T09:47:42;20.69;51.51
67586;SHT31;55785;47.946;20.540;2023-08-08T09:50:08;20.66;52.50
67586;SHT31;55785;47.946;20.540;2023-08-08T09:52:35;20.67;51.21
67586;SHT31;55785;47.946;20.540;2023-08-08T09:55:01;20.72;54.01
67586;SHT31;55785;47.946;20.540;2023-08-08T09:57:27;20.69;51.93
67586;SHT31;55785;47.946;20.540;2023-08-08T09:59:52;20.81;54.00
67586;SHT31;55785;47.946;20.540;2023-08-08T10:02:18;20.93;53.51
67586;SHT31;55785;47.946;20.540;2023-08-08T10:04:45;20.97;54.61
67586;SHT31;55785;47.946;20.540;2023-08-08T10:07:10;21.14;57.37
67586;SHT31;55785;47.946;20.540;2023-08-08T10:09:36;21.27;53.41
67586;SHT31;55785;47.946;20.540;2023-08-08T10:12:01;21.27;54.68
67586;SHT31;55785;47.946;20.540;2023-08-08T10:14:32;21.18;51.52
67586;SHT31;55785;47.946;20.540;2023-08-08T10:16:58;21.17;51.54
67586;SHT31;55785;47.946;20.540;2023-08-08T10:19:24;21.25;52.45
67586;SHT31;55785;47.946;20.540;2023-08-08T10:21:58;21.30;53.96
67586;SHT31;55785;47.946;20.540;2023-08-08T10:24:24;21.23;51.86
67586;SHT31;55785;47.946;20.540;2023-08-08T10:26:59;21.30;55.24
67586;SHT31;55785;47.946;20.540;2023-08-08T10:29:26;21.32;50.85
67586;SHT31;55785;47.946;20.540;2023-08-08T10:31:54;21.06;49.57
67586;SHT31;55785;47.946;20.540;2023-08-08T10:34:36;21.00;49.28
67586;SHT31;55785;47.946;20.540;2023-08-08T10:37:16;20.93;50.61
67586;SHT31;55785;47.946;20.540;2023-08-08T10:39:51;21.03;49.62
67586;SHT31;55785;47.946;20.540;2023-08-08T10:42:19;20.98;47.76
67586;SHT31;55785;47.946;20.540;2023-08-08T10:44:51;21.23;51.08
67586;SHT31;55785;47.946;20.540;2023-08-08T10:47:22;21.45;50.06
67586;SHT31;55785;47.946;20.540;2023-08-08T10:49:59;21.62;49.14
67586;SHT31;55785;47.946;20.540;2023-08-08T10:52:27;21.75;47.42
67586;SHT31;55785;47.946;20.540;2023-08-08T10:54:54;21.94;48.37
67586;SHT31;55785;47.946;20.540;2023-08-08T10:57:23;22.06;49.05
67586;SHT31;55785;47.946;20.540;2023-08-08T10:59:49;21.88;49.59
67586;SHT31;55785;47.946;20.540;2023-08-08T11:02:14;21.65;48.68
67586;SHT31;55785;47.946;20.540;2023-08-08T11:04:40;21.75;50.65
67586;SHT31;55785;47.946;20.540;2023-08-08T11:07:06;21.72;46.60
67586;SHT31;55785;47.946;20.540;2023-08-08T11:09:32;21.73;44.93
67586;SHT31;55785;47.946;20.540;2023-08-08T11:11:57;21.71;44.85
67586;SHT31;55785;47.946;20.540;2023-08-08T11:14:23;21.79;44.40
67586;SHT31;55785;47.946;20.540;2023-08-08T11:16:49;21.97;46.87
67586;SHT31;55785;47.946;20.540;2023-08-08T11:19:15;21.96;47.40
67586;SHT31;55785;47.946;20.540;2023-08-08T11:21:43;21.92;47.94
67586;SHT31;55785;47.946;20.540;2023-08-08T11:24:08;22.07;49.55
67586;SHT31;55785;47.946;20.540;2023-08-08T11:26:35;22.29;48.63
67586;SHT31;55785;47.946;20.540;2023-08-08T11:29:02;22.18;45.39
67586;SHT31;55785;47.946;20.540;2023-08-08T11:31:29;22.03;46.47
67586;SHT31;55785;47.946;20.540;2023-08-08T11:33:55;21.85;47.90
67586;SHT31;55785;47.946;20.540;2023-08-08T11:36:24;21.76;47.33
67586;SHT31;55785;47.946;20.540;2023-08-08T11:38:50;21.90;48.89
67586;SHT31;55785;47.946;20.540;2023-08-08T11:41:20;22.06;47.81
67586;SHT31;55785;47.946;20.540;2023-08-08T11:43:47;21.86;45.85
67586;SHT31;55785;47.946;20.540;2023-08-08T11:46:13;21.88;46.83
67586;SHT31;55785;47.946;20.540;2023-08-08T11:48:39;21.79;46.88
67586;SHT31;55785;47.946;20.540;2023-08-08T11:51:06;21.97;50.88
67586;SHT31;55785;47.946;20.540;2023-08-08T11:53:32;22.17;48.05
67586;SHT31;55785;47.946;20.540;2023-08-08T11:55:59;21.99;46.98
67586;SHT31;55785;47.946;20.540;2023-08-08T11:58:25;21.94;47.47
67586;SHT31;55785;47.946;20.540;2023-08-08T12:00:52;21.97;49.10
67586;SHT31;55785;47.946;20.540;2023-08-08T12:03:18;21.96;46.52
67586;SHT31;55785;47.946;20.540;2023-08-08T12:05:46;22.10;47.64
67586;SHT31;55785;47.946;20.540;2023-08-08T12:08:11;22.40;50.10
67586;SHT31;55785;47.946;20.540;2023-08-08T12:10:37;22.73;46.80
67586;SHT31;55785;47.946;20.540;2023-08-08T12:13:02;22.61;44.26
67586;SHT31;55785;47.946;20.540;2023-08-08T12:15:31;22.37;44.34
67586;SHT31;55785;47.946;20.540;2023-08-08T12:17:58;22.33;43.67
67586;SHT31;55785;47.946;20.540;2023-08-08T12:20:27;22.00;44.67
67586;SHT31;55785;47.946;20.540;2023-08-08T12:22:52;22.09;47.79
67586;SHT31;55785;47.946;20.540;2023-08-08T12:25:18;22.03;47.29
67586;SHT31;55785;47.946;20.540;2023-08-08T12:27:44;22.03;47.36
67586;SHT31;55785;47.946;20.540;2023-08-08T12:30:09;22.37;45.58
67586;SHT31;55785;47.946;20.540;2023-08-08T12:32:35;22.54;47.86
67586;SHT31;55785;47.946;20.540;2023-08-08T12:35:00;22.88;46.91
67586;SHT31;55785;47.946;20.540;2023-08-08T12:37:26;22.92;47.40
67586;SHT31;55785;47.946;20.540;2023-08-08T12:39:51;23.20;48.84
67586;SHT31;55785;47.946;20.540;2023-08-08T12:42:17;22.87;45.55
67586;SHT31;55785;47.946;20.540;2023-08-08T12:44:42;22.65;46.06
67586;SHT31;55785;47.946;20.540;2023-08-08T12:47:08;23.00;47.08
67586;SHT31;55785;47.946;20.540;2023-08-08T12:49:33;23.40;50.26
67586;SHT31;55785;47.946;20.540;2023-08-08T12:51:58;23.46;46.81
67586;SHT31;55785;47.946;20.540;2023-08-08T12:54:24;23.34;45.64
67586;SHT31;55785;47.946;20.540;2023-08-08T12:56:49;22.92;45.42
67586;SHT31;55785;47.946;20.540;2023-08-08T12:59:15;22.52;47.40
67586;SHT31;55785;47.946;20.540;2023-08-08T13:01:40;22.34;48.04
67586;SHT31;55785;47.946;20.540;2023-08-08T13:04:05;22.50;48.84
67586;SHT31;55785;47.946;20.540;2023-08-08T13:06:31;22.69;46.10
67586;SHT31;55785;47.946;20.540;2023-08-08T13:08:56;22.95;46.02
67586;SHT31;55785;47.946;20.540;2023-08-08T13:11:22;22.73;44.93
67586;SHT31;55785;47.946;20.540;2023-08-08T13:13:47;22.75;47.20
67586;SHT31;55785;47.946;20.540;2023-08-08T13:16:12;22.75;46.10
67586;SHT31;55785;47.946;20.540;2023-08-08T13:18:38;22.82;47.41
67586;SHT31;55785;47.946;20.540;2023-08-08T13:21:03;22.95;45.32
67586;SHT31;55785;47.946;20.540;2023-08-08T13:23:29;22.92;46.94
67586;SHT31;55785;47.946;20.540;2023-08-08T13:25:54;22.88;49.03
67586;SHT31;55785;47.946;20.540;2023-08-08T13:28:19;22.71;46.56
67586;SHT31;55785;47.946;20.540;2023-08-08T13:30:45;22.68;48.17
67586;SHT31;55785;47.946;20.540;2023-08-08T13:33:10;22.73;47.49
67586;SHT31;55785;47.946;20.540;2023-08-08T13:35:35;22.61;46.04
67586;SHT31;55785;47.946;20.540;2023-08-08T13:38:01;22.54;46.29
67586;SHT31;55785;47.946;20.540;2023-08-08T13:40:26;22.67;47.97
67586;SHT31;55785;47.946;20.540;2023-08-08T13:42:52;22.37;45.33
67586;SHT31;55785;47.946;20.540;2023-08-08T13:45:18;22.39;47.07
67586;SHT31;55785;47.946;20.540;2023-08-08T13:47:43;22.58;45.66
67586;SHT31;55785;47.946;20.540;2023-08-08T13:50:09;22.65;45.08
67586;SHT31;55785;47.946;20.540;2023-08-08T13:52:34;22.50;46.48
67586;SHT31;55785;47.946;20.540;2023-08-08T13:55:00;22.69;45.84
67586;SHT31;55785;47.946;20.540;2023-08-08T13:57:25;22.67;44.60
67586;SHT31;55785;47.946;20.540;2023-08-08T13:59:51;22.61;43.10
67586;SHT31;55785;47.946;20.540;2023-08-08T14:02:16;22.36;44.43
67586;SHT31;55785;47.946;20.540;2023-08-08T14:04:42;22.39;45.25
67586;SHT31;55785;47.946;20.540;2023-08-08T14:07:08;22.30;44.85
67586;SHT31;55785;47.946;20.540;2023-08-08T14:09:34;22.41;45.85
67586;SHT31;55785;47.946;20.540;2023-08-08T14:11:59;22.58;45.32
67586;SHT31;55785;47.946;20.540;2023-08-08T14:14:24;22.55;44.83
67586;SHT31;55785;47.946;20.540;2023-08-08T14:16:50;22.57;45.08
67586;SHT31;55785;47.946;20.540;2023-08-08T14:19:15;22.52;45.96
67586;SHT31;55785;47.946;20.540;2023-08-08T14:21:40;22.62;45.37
67586;SHT31;55785;47.946;20.540;2023-08-08T14:24:06;22.69;45.42
67586;SHT31;55785;47.946;20.540;2023-08-08T14:26:31;22.71;45.61
67586;SHT31;55785;47.946;20.540;2023-08-08T14:28:57;22.85;45.53
67586;SHT31;55785;47.946;20.540;2023-08-08T14:31:22;22.73;44.62
67586;SHT31;55785;47.946;20.540;2023-08-08T14:33:47;22.67;45.39
67586;SHT31;55785;47.946;20.540;2023-08-08T14:36:13;22.37;45.64
67586;SHT31;55785;47.946;20.540;2023-08-08T14:38:38;22.54;48.00
67586;SHT31;55785;47.946;20.540;2023-08-08T14:41:03;22.36;45.96
67586;SHT31;55785;47.946;20.540;2023-08-08T14:43:29;22.40;46.80
67586;SHT31;55785;47.946;20.540;2023-08-08T14:45:54;22.48;46.33
67586;SHT31;55785;47.946;20.540;2023-08-08T14:48:20;22.45;47.61
67586;SHT31;55785;47.946;20.540;2023-08-08T14:50:45;22.34;46.49
67586;SHT31;55785;47.946;20.540;2023-08-08T14:53:10;22.40;47.46
67586;SHT31;55785;47.946;20.540;2023-08-08T14:55:36;22.41;48.03
67586;SHT31;55785;47.946;20.540;2023-08-08T14:58:01;22.43;47.76
67586;SHT31;55785;47.946;20.540;2023-08-08T15:00:27;22.18;46.74
67586;SHT31;55785;47.946;20.540;2023-08-08T15:02:52;22.40;46.45
67586;SHT31;55785;47.946;20.540;2023-08-08T15:05:18;22.34;47.65
67586;SHT31;55785;47.946;20.540;2023-08-08T15:07:43;22.61;47.25
67586;SHT31;55785;47.946;20.540;2023-08-08T15:10:08;22.18;47.16
67586;SHT31;55785;47.946;20.540;2023-08-08T15:12:34;21.55;48.44
67586;SHT31;55785;47.946;20.540;2023-08-08T15:14:59;21.04;50.19
67586;SHT31;55785;47.946;20.540;2023-08-08T15:17:25;20.83;51.52
67586;SHT31;55785;47.946;20.540;2023-08-08T15:19:50;20.66;52.45
67586;SHT31;55785;47.946;20.540;2023-08-08T15:22:15;20.53;52.74
67586;SHT31;55785;47.946;20.540;2023-08-08T15:24:41;20.36;53.32
67586;SHT31;55785;47.946;20.540;2023-08-08T15:27:06;20.33;54.45
67586;SHT31;55785;47.946;20.540;2023-08-08T15:29:31;20.28;54.71
67586;SHT31;55785;47.946;20.540;2023-08-08T15:31:57;20.29;55.13
67586;SHT31;55785;47.946;20.540;2023-08-08T15:34:22;20.17;54.84
67586;SHT31;55785;47.946;20.540;2023-08-08T15:36:47;20.07;54.94
67586;SHT31;55785;47.946;20.540;2023-08-08T15:39:13;20.09;55.23
67586;SHT31;55785;47.946;20.540;2023-08-08T15:41:38;20.18;56.43
67586;SHT31;55785;47.946;20.540;2023-08-08T15:44:03;20.21;55.65
67586;SHT31;55785;47.946;20.540;2023-08-08T15:46:29;20.18;56.09
67586;SHT31;55785;47.946;20.540;2023-08-08T15:48:54;20.17;55.77
67586;SHT31;55785;47.946;20.540;2023-08-08T15:51:20;20.18;56.10
67586;SHT31;55785;47.946;20.540;2023-08-08T15:53:45;20.12;55.82
67586;SHT31;55785;47.946;20.540;2023-08-08T15:56:10;20.12;55.78
67586;SHT31;55785;47.946;20.540;2023-08-08T15:58:36;20.28;56.41
67586;SHT31;55785;47.946;20.540;2023-08-08T16:01:01;20.46;54.93
67586;SHT31;55785;47.946;20.540;2023-08-08T16:03:26;20.69;53.70
67586;SHT31;55785;47.946;20.540;2023-08-08T16:05:52;20.65;54.15
67586;SHT31;55785;47.946;20.540;2023-08-08T16:08:17;20.60;54.40
67586;SHT31;55785;47.946;20.540;2023-08-08T16:10:43;20.52;54.49
67586;SHT31;55785;47.946;20.540;2023-08-08T16:13:08;20.45;54.26
67586;SHT31;55785;47.946;20.540;2023-08-08T16:15:33;20.49;55.29
67586;SHT31;55785;47.946;20.540;2023-08-08T16:17:58;20.38;55.21
67586;SHT31;55785;47.946;20.540;2023-08-08T16:20:24;20.32;53.29
67586;SHT31;55785;47.946;20.540;2023-08-08T16:22:49;20.33;55.33
67586;SHT31;55785;47.946;20.540;2023-08-08T16:25:15;20.30;55.68
67586;SHT31;55785;47.946;20.540;2023-08-08T16:27:40;20.39;55.66
67586;SHT31;55785;47.946;20.540;2023-08-08T16:30:06;20.48;55.77
67586;SHT31;55785;47.946;20.540;2023-08-08T16:32:32;20.35;55.23
67586;SHT31;55785;47.946;20.540;2023-08-08T16:34:57;20.19;55.72
67586;SHT31;55785;47.946;20.540;2023-08-08T16:37:22;20.00;55.67
67586;SHT31;55785;47.946;20.540;2023-08-08T16:39:48;19.80;56.44
67586;SHT31;55785;47.946;20.540;2023-08-08T16:42:13;19.77;56.99
67586;SHT31;55785;47.946;20.540;2023-08-08T16:44:38;19.73;57.58
67586;SHT31;55785;47.946;20.540;2023-08-08T16:47:04;19.74;58.16
67586;SHT31;55785;47.946;20.540;2023-08-08T16:49:29;19.73;57.29
67586;SHT31;55785;47.946;20.540;2023-08-08T16:51:57;19.75;57.96
67586;SHT31;55785;47.946;20.540;2023-08-08T16:54:22;19.77;58.53
67586;SHT31;55785;47.946;20.540;2023-08-08T16:56:47;19.70;58.02
67586;SHT31;55785;47.946;20.540;2023-08-08T16:59:13;19.54;57.91
67586;SHT31;55785;47.946;20.540;2023-08-08T17:01:38;19.47;58.21
67586;SHT31;55785;47.946;20.540;2023-08-08T17:04:04;19.45;58.31
67586;SHT31;55785;47.946;20.540;2023-08-08T17:06:29;19.43;59.27
67586;SHT31;55785;47.946;20.540;2023-08-08T17:08:54;19.43;59.40
67586;SHT31;55785;47.946;20.540;2023-08-08T17:11:20;19.36;59.71
67586;SHT31;55785;47.946;20.540;2023-08-08T17:13:45;19.36;59.79
67586;SHT31;55785;47.946;20.540;2023-08-08T17:16:10;19.32;60.09
67586;SHT31;55785;47.946;20.540;2023-08-08T17:18:36;19.23;60.15
67586;SHT31;55785;47.946;20.540;2023-08-08T17:21:01;19.15;60.24
67586;SHT31;55785;47.946;20.540;2023-08-08T17:23:26;19.12;63.29
67586;SHT31;55785;47.946;20.540;2023-08-08T17:25:52;19.05;62.09
67586;SHT31;55785;47.946;20.540;2023-08-08T17:28:17;18.98;62.45
67586;SHT31;55785;47.946;20.540;2023-08-08T17:30:42;18.88;63.08
67586;SHT31;55785;47.946;20.540;2023-08-08T17:33:08;18.81;63.60
67586;SHT31;55785;47.946;20.540;2023-08-08T17:35:33;18.72;64.14
67586;SHT31;55785;47.946;20.540;2023-08-08T17:37:58;18.60;65.88
67586;SHT31;55785;47.946;20.540;2023-08-08T17:40:24;18.47;67.16
67586;SHT31;55785;47.946;20.540;2023-08-08T17:42:50;18.40;67.16
67586;SHT31;55785;47.946;20.540;2023-08-08T17:45:15;18.24;66.74
67586;SHT31;55785;47.946;20.540;2023-08-08T17:47:40;18.13;67.79
67586;SHT31;55785;47.946;20.540;2023-08-08T17:50:06;18.02;69.76
67586;SHT31;55785;47.946;20.540;2023-08-08T17:52:32;17.83;70.97
67586;SHT31;55785;47.946;20.540;2023-08-08T17:54:57;17.71;71.69
67586;SHT31;55785;47.946;20.540;2023-08-08T17:57:23;17.59;71.95
67586;SHT31;55785;47.946;20.540;2023-08-08T17:59:48;17.45;72.05
67586;SHT31;55785;47.946;20.540;2023-08-08T18:02:13;17.35;72.49
67586;SHT31;55785;47.946;20.540;2023-08-08T18:04:39;17.20;73.41
67586;SHT31;55785;47.946;20.540;2023-08-08T18:07:04;17.10;75.58
67586;SHT31;55785;47.946;20.540;2023-08-08T18:09:29;16.99;76.19
67586;SHT31;55785;47.946;20.540;2023-08-08T18:11:55;16.87;75.73
67586;SHT31;55785;47.946;20.540;2023-08-08T18:14:21;16.75;76.58
67586;SHT31;55785;47.946;20.540;2023-08-08T18:16:46;16.61;77.40
67586;SHT31;55785;47.946;20.540;2023-08-08T18:19:12;16.45;78.40
67586;SHT31;55785;47.946;20.540;2023-08-08T18:21:37;16.31;78.48
67586;SHT31;55785;47.946;20.540;2023-08-08T18:24:02;16.18;78.98
67586;SHT31;55785;47.946;20.540;2023-08-08T18:26:28;16.08;78.97
67586;SHT31;55785;47.946;20.540;2023-08-08T18:28:53;16.01;79.37
67586;SHT31;55785;47.946;20.540;2023-08-08T18:31:19;15.93;79.76
67586;SHT31;55785;47.946;20.540;2023-08-08T18:33:45;15.89;80.12
67586;SHT31;55785;47.946;20.540;2023-08-08T18:36:11;15.87;80.15
67586;SHT31;55785;47.946;20.540;2023-08-08T18:38:37;15.80;80.58
67586;SHT31;55785;47.946;20.540;2023-08-08T18:41:03;15.77;80.93
67586;SHT31;55785;47.946;20.540;2023-08-08T18:43:28;15.76;81.10
67586;SHT31;55785;47.946;20.540;2023-08-08T18:45:53;15.63;81.02
67586;SHT31;55785;47.946;20.540;2023-08-08T18:48:19;15.57;81.80
67586;SHT31;55785;47.946;20.540;2023-08-08T18:50:45;15.40;82.21
67586;SHT31;55785;47.946;20.540;2023-08-08T18:53:12;15.28;82.51
67586;SHT31;55785;47.946;20.540;2023-08-08T18:55:38;15.15;83.12
67586;SHT31;55785;47.946;20.540;2023-08-08T18:58:03;15.09;83.13
67586;SHT31;55785;47.946;20.540;2023-08-08T19:00:29;15.02;83.23
67586;SHT31;55785;47.946;20.540;2023-08-08T19:02:54;14.97;83.18
67586;SHT31;55785;47.946;20.540;2023-08-08T19:05:20;15.01;82.83
67586;SHT31;55785;47.946;20.540;2023-08-08T19:07:46;15.06;82.67
67586;SHT31;55785;47.946;20.540;2023-08-08T19:10:11;15.11;82.54
67586;SHT31;55785;47.946;20.540;2023-08-08T19:12:36;15.06;82.71
67586;SHT31;55785;47.946;20.540;2023-08-08T19:15:02;14.98;83.03
67586;SHT31;55785;47.946;20.540;2023-08-08T19:17:27;14.85;83.71
67586;SHT31;55785;47.946;20.540;2023-08-08T19:19:53;14.77;84.18
67586;SHT31;55785;47.946;20.540;2023-08-08T19:22:18;14.71;84.06
67586;SHT31;55785;47.946;20.540;2023-08-08T19:24:43;14.67;84.10
67586;SHT31;55785;47.946;20.540;2023-08-08T19:27:09;14.64;83.92
67586;SHT31;55785;47.946;20.540;2023-08-08T19:29:34;14.59;84.19
67586;SHT31;55785;47.946;20.540;2023-08-08T19:31:59;14.53;83.84
67586;SHT31;55785;47.946;20.540;2023-08-08T19:34:25;14.55;83.51
67586;SHT31;55785;47.946;20.540;2023-08-08T19:36:50;14.53;83.50
67586;SHT31;55785;47.946;20.540;2023-08-08T19:39:15;14.46;83.75
67586;SHT31;55785;47.946;20.540;2023-08-08T19:41:41;14.40;83.99
67586;SHT31;55785;47.946;20.540;2023-08-08T19:44:06;14.37;83.85
67586;SHT31;55785;47.946;20.540;2023-08-08T19:46:31;14.29;84.00
67586;SHT31;55785;47.946;20.540;2023-08-08T19:48:57;14.22;84.09
67586;SHT31;55785;47.946;20.540;2023-08-08T19:51:22;14.19;84.03
67586;SHT31;55785;47.946;20.540;2023-08-08T19:53:47;14.18;84.13
67586;SHT31;55785;47.946;20.540;2023-08-08T19:56:13;14.19;83.81
67586;SHT31;55785;47.946;20.540;2023-08-08T19:58:38;14.13;83.61
67586;SHT31;55785;47.946;20.540;2023-08-08T20:01:04;14.08;83.75
67586;SHT31;55785;47.946;20.540;2023-08-08T20:03:29;14.04;83.94
67586;SHT31;55785;47.946;20.540;2023-08-08T20:05:54;14.02;84.04
67586;SHT31;55785;47.946;20.540;2023-08-08T20:08:20;13.99;83.84
67586;SHT31;55785;47.946;20.540;2023-08-08T20:10:45;14.01;83.38
67586;SHT31;55785;47.946;20.540;2023-08-08T20:13:10;14.04;83.38
67586;SHT31;55785;47.946;20.540;2023-08-08T20:15:36;14.02;83.32
67586;SHT31;55785;47.946;20.540;2023-08-08T20:18:01;13.99;83.00
67586;SHT31;55785;47.946;20.540;2023-08-08T20:20:27;14.04;82.74
67586;SHT31;55785;47.946;20.540;2023-08-08T20:22:52;14.02;82.17
67586;SHT31;55785;47.946;20.540;2023-08-08T20:25:17;14.08;81.99
67586;SHT31;55785;47.946;20.540;2023-08-08T20:27:43;14.06;82.31
67586;SHT31;55785;47.946;20.540;2023-08-08T20:30:09;14.02;82.83
67586;SHT31;55785;47.946;20.540;2023-08-08T20:32:34;13.99;83.34
67586;SHT31;55785;47.946;20.540;2023-08-08T20:35:00;13.94;83.54
67586;SHT31;55785;47.946;20.540;2023-08-08T20:37:25;13.89;83.70
67586;SHT31;55785;47.946;20.540;2023-08-08T20:39:51;13.86;84.31
67586;SHT31;55785;47.946;20.540;2023-08-08T20:42:16;13.82;84.14
67586;SHT31;55785;47.946;20.540;2023-08-08T20:44:42;13.78;84.30
67586;SHT31;55785;47.946;20.540;2023-08-08T20:47:07;13.72;84.35
67586;SHT31;55785;47.946;20.540;2023-08-08T20:49:32;13.65;84.50
67586;SHT31;55785;47.946;20.540;2023-08-08T20:51:58;13.61;84.64
67586;SHT31;55785;47.946;20.540;2023-08-08T20:54:23;13.53;84.74
67586;SHT31;55785;47.946;20.540;2023-08-08T20:56:56;13.48;84.91
67586;SHT31;55785;47.946;20.540;2023-08-08T20:59:22;13.43;85.02
67586;SHT31;55785;47.946;20.540;2023-08-08T21:01:47;13.36;85.13
67586;SHT31;55785;47.946;20.540;2023-08-08T21:04:12;13.31;85.32
67586;SHT31;55785;47.946;20.540;2023-08-08T21:06:38;13.31;85.55
67586;SHT31;55785;47.946;20.540;2023-08-08T21:09:03;13.24;85.39
67586;SHT31;55785;47.946;20.540;2023-08-08T21:11:29;13.22;85.78
67586;SHT31;55785;47.946;20.540;2023-08-08T21:13:54;13.22;85.85
67586;SHT31;55785;47.946;20.540;2023-08-08T21:16:20;13.17;85.83
67586;SHT31;55785;47.946;20.540;2023-08-08T21:18:45;13.16;86.40
67586;SHT31;55785;47.946;20.540;2023-08-08T21:21:10;13.12;86.48
67586;SHT31;55785;47.946;20.540;2023-08-08T21:23:36;13.04;86.38
67586;SHT31;55785;47.946;20.540;2023-08-08T21:26:01;13.04;86.56
67586;SHT31;55785;47.946;20.540;2023-08-08T21:38:07;13.07;86.33
67586;SHT31;55785;47.946;20.540;2023-08-08T21:40:32;13.13;86.56
67586;SHT31;55785;47.946;20.540;2023-08-08T23:07:40;13.86;83.05
67586;SHT31;55785;47.946;20.540;2023-08-08T23:10:06;13.79;83.07
67586;SHT31;55785;47.946;20.540;2023-08-08T23:12:31;13.74;83.24
67586;SHT31;55785;47.946;20.540;2023-08-08T23:14:57;13.62;82.76
